Olsburg, Kansas
Current Conditions -  °F | °C
As of 7:52 PM on Wednesday 26 Nov 2014 (Local Time) from KMHK Reporting Station
Clear Clear  
Wind Chill: 22°   Ceiling: Unl
Heat Index: 29°   Visibility: 10mi
Dew Point: 21°   Wind: 7mph
Humidity: 72%   Direction: 350°N
Pressure: 30.39"   Gusts: NA
Location:  39.43°N, 96.62°W
Report Text: KMHK 270152Z 35006KT 10SM CLR M02/M06 A3039 RMK AO2 SLP301 T10171061
Loading
Personal Weather Stations






























Interactive Weather Map New forecast layout! Learn more

10-Day Weather Forecast

Advertisements
Track Severe Weather on mobile